sensor_id;sensor_type;location;lat;lon;timestamp;P1;durP1;ratioP1;P2;durP2;ratioP2
24873;SDS011;12945;42.648;23.370;2023-07-31T00:00:56;3.90;;;3.50;;
24873;SDS011;12945;42.648;23.370;2023-07-31T00:03:21;4.20;;;3.70;;
24873;SDS011;12945;42.648;23.370;2023-07-31T00:05:46;4.47;;;3.92;;
24873;SDS011;12945;42.648;23.370;2023-07-31T00:08:11;4.63;;;3.85;;
24873;SDS011;12945;42.648;23.370;2023-07-31T00:10:37;4.53;;;3.70;;
24873;SDS011;12945;42.648;23.370;2023-07-31T00:13:02;4.63;;;3.88;;
24873;SDS011;12945;42.648;23.370;2023-07-31T00:15:27;5.97;;;3.72;;
24873;SDS011;12945;42.648;23.370;2023-07-31T00:17:53;6.60;;;3.90;;
24873;SDS011;12945;42.648;23.370;2023-07-31T00:20:18;4.90;;;3.50;;
24873;SDS011;12945;42.648;23.370;2023-07-31T00:22:43;5.20;;;4.05;;
24873;SDS011;12945;42.648;23.370;2023-07-31T00:25:09;4.78;;;3.40;;
24873;SDS011;12945;42.648;23.370;2023-07-31T00:27:34;5.38;;;4.07;;
24873;SDS011;12945;42.648;23.370;2023-07-31T00:29:59;7.03;;;3.70;;
24873;SDS011;12945;42.648;23.370;2023-07-31T00:32:25;5.10;;;3.70;;
24873;SDS011;12945;42.648;23.370;2023-07-31T00:34:50;5.57;;;3.85;;
24873;SDS011;12945;42.648;23.370;2023-07-31T00:37:15;4.40;;;4.00;;
24873;SDS011;12945;42.648;23.370;2023-07-31T00:39:41;4.53;;;3.85;;
24873;SDS011;12945;42.648;23.370;2023-07-31T00:42:06;5.60;;;4.57;;
24873;SDS011;12945;42.648;23.370;2023-07-31T00:44:32;4.57;;;3.70;;
24873;SDS011;12945;42.648;23.370;2023-07-31T00:46:57;5.07;;;4.10;;
24873;SDS011;12945;42.648;23.370;2023-07-31T00:49:24;4.80;;;4.13;;
24873;SDS011;12945;42.648;23.370;2023-07-31T00:51:49;5.40;;;4.35;;
24873;SDS011;12945;42.648;23.370;2023-07-31T00:54:15;7.43;;;4.55;;
24873;SDS011;12945;42.648;23.370;2023-07-31T00:56:40;7.75;;;5.30;;
24873;SDS011;12945;42.648;23.370;2023-07-31T00:59:05;7.97;;;5.65;;
24873;SDS011;12945;42.648;23.370;2023-07-31T01:01:31;7.05;;;5.53;;
24873;SDS011;12945;42.648;23.370;2023-07-31T01:03:56;10.45;;;6.60;;
24873;SDS011;12945;42.648;23.370;2023-07-31T01:06:33;8.45;;;6.47;;
24873;SDS011;12945;42.648;23.370;2023-07-31T01:09:04;7.93;;;6.32;;
24873;SDS011;12945;42.648;23.370;2023-07-31T01:11:31;8.15;;;6.57;;
24873;SDS011;12945;42.648;23.370;2023-07-31T01:13:58;8.18;;;6.88;;
24873;SDS011;12945;42.648;23.370;2023-07-31T01:16:24;8.65;;;7.78;;
24873;SDS011;12945;42.648;23.370;2023-07-31T01:18:50;9.88;;;8.30;;
24873;SDS011;12945;42.648;23.370;2023-07-31T01:21:27;10.02;;;9.02;;
24873;SDS011;12945;42.648;23.370;2023-07-31T01:26:39;13.93;;;10.85;;
24873;SDS011;12945;42.648;23.370;2023-07-31T01:29:40;14.68;;;12.10;;
24873;SDS011;12945;42.648;23.370;2023-07-31T01:31:56;16.08;;;12.73;;
24873;SDS011;12945;42.648;23.370;2023-07-31T01:34:23;16.23;;;12.43;;
24873;SDS011;12945;42.648;23.370;2023-07-31T01:36:49;17.30;;;14.15;;
24873;SDS011;12945;42.648;23.370;2023-07-31T01:39:15;17.45;;;14.65;;
24873;SDS011;12945;42.648;23.370;2023-07-31T01:41:40;18.15;;;16.15;;
24873;SDS011;12945;42.648;23.370;2023-07-31T01:44:06;19.33;;;17.08;;
24873;SDS011;12945;42.648;23.370;2023-07-31T01:46:31;21.42;;;18.42;;
24873;SDS011;12945;42.648;23.370;2023-07-31T01:48:57;25.15;;;22.02;;
24873;SDS011;12945;42.648;23.370;2023-07-31T01:51:22;24.90;;;22.17;;
24873;SDS011;12945;42.648;23.370;2023-07-31T01:53:47;30.88;;;24.92;;
24873;SDS011;12945;42.648;23.370;2023-07-31T01:56:13;28.20;;;25.15;;
24873;SDS011;12945;42.648;23.370;2023-07-31T01:58:38;28.77;;;25.67;;
24873;SDS011;12945;42.648;23.370;2023-07-31T02:01:03;30.33;;;26.08;;
24873;SDS011;12945;42.648;23.370;2023-07-31T02:03:29;32.40;;;25.85;;
24873;SDS011;12945;42.648;23.370;2023-07-31T02:05:54;30.33;;;26.90;;
24873;SDS011;12945;42.648;23.370;2023-07-31T02:08:19;30.30;;;27.00;;
24873;SDS011;12945;42.648;23.370;2023-07-31T02:10:44;29.90;;;26.80;;
24873;SDS011;12945;42.648;23.370;2023-07-31T02:13:10;30.55;;;27.23;;
24873;SDS011;12945;42.648;23.370;2023-07-31T02:15:36;30.15;;;26.88;;
24873;SDS011;12945;42.648;23.370;2023-07-31T02:18:02;30.98;;;27.40;;
24873;SDS011;12945;42.648;23.370;2023-07-31T02:20:27;32.78;;;28.10;;
24873;SDS011;12945;42.648;23.370;2023-07-31T02:22:52;31.58;;;27.38;;
24873;SDS011;12945;42.648;23.370;2023-07-31T02:25:18;34.50;;;27.92;;
24873;SDS011;12945;42.648;23.370;2023-07-31T02:27:43;30.45;;;27.15;;
24873;SDS011;12945;42.648;23.370;2023-07-31T02:30:08;31.52;;;27.27;;
24873;SDS011;12945;42.648;23.370;2023-07-31T02:32:34;32.92;;;27.65;;
24873;SDS011;12945;42.648;23.370;2023-07-31T02:34:59;30.85;;;27.27;;
24873;SDS011;12945;42.648;23.370;2023-07-31T02:37:25;31.75;;;28.35;;
24873;SDS011;12945;42.648;23.370;2023-07-31T02:39:50;32.75;;;27.80;;
24873;SDS011;12945;42.648;23.370;2023-07-31T02:42:15;29.95;;;26.20;;
24873;SDS011;12945;42.648;23.370;2023-07-31T02:44:40;30.42;;;27.17;;
24873;SDS011;12945;42.648;23.370;2023-07-31T02:47:06;33.08;;;26.80;;
24873;SDS011;12945;42.648;23.370;2023-07-31T02:49:31;30.83;;;27.50;;
24873;SDS011;12945;42.648;23.370;2023-07-31T02:51:56;29.95;;;26.63;;
24873;SDS011;12945;42.648;23.370;2023-07-31T02:54:22;31.85;;;26.92;;
24873;SDS011;12945;42.648;23.370;2023-07-31T02:56:47;29.25;;;25.85;;
24873;SDS011;12945;42.648;23.370;2023-07-31T02:59:13;35.40;;;26.15;;
24873;SDS011;12945;42.648;23.370;2023-07-31T03:01:38;29.90;;;26.70;;
24873;SDS011;12945;42.648;23.370;2023-07-31T03:04:03;31.27;;;26.95;;
24873;SDS011;12945;42.648;23.370;2023-07-31T03:06:29;30.60;;;26.50;;
24873;SDS011;12945;42.648;23.370;2023-07-31T03:08:54;32.45;;;25.90;;
24873;SDS011;12945;42.648;23.370;2023-07-31T03:11:20;29.63;;;26.15;;
24873;SDS011;12945;42.648;23.370;2023-07-31T03:13:45;29.60;;;26.50;;
24873;SDS011;12945;42.648;23.370;2023-07-31T03:16:10;27.00;;;24.08;;
24873;SDS011;12945;42.648;23.370;2023-07-31T03:18:35;30.75;;;25.52;;
24873;SDS011;12945;42.648;23.370;2023-07-31T03:21:01;32.40;;;25.55;;
24873;SDS011;12945;42.648;23.370;2023-07-31T03:23:26;30.42;;;25.33;;
24873;SDS011;12945;42.648;23.370;2023-07-31T03:25:55;27.67;;;24.73;;
24873;SDS011;12945;42.648;23.370;2023-07-31T03:28:21;31.23;;;27.37;;
24873;SDS011;12945;42.648;23.370;2023-07-31T03:30:46;29.75;;;25.33;;
24873;SDS011;12945;42.648;23.370;2023-07-31T03:33:11;30.67;;;26.55;;
24873;SDS011;12945;42.648;23.370;2023-07-31T03:35:37;29.38;;;26.17;;
24873;SDS011;12945;42.648;23.370;2023-07-31T03:38:02;30.08;;;25.83;;
24873;SDS011;12945;42.648;23.370;2023-07-31T03:40:27;33.55;;;27.17;;
24873;SDS011;12945;42.648;23.370;2023-07-31T03:42:52;31.00;;;26.55;;
24873;SDS011;12945;42.648;23.370;2023-07-31T03:45:18;31.20;;;27.00;;
24873;SDS011;12945;42.648;23.370;2023-07-31T03:47:43;32.30;;;26.58;;
24873;SDS011;12945;42.648;23.370;2023-07-31T03:50:08;32.05;;;27.83;;
24873;SDS011;12945;42.648;23.370;2023-07-31T03:52:34;35.25;;;27.85;;
24873;SDS011;12945;42.648;23.370;2023-07-31T03:54:59;31.30;;;26.42;;
24873;SDS011;12945;42.648;23.370;2023-07-31T03:57:24;32.30;;;27.40;;
24873;SDS011;12945;42.648;23.370;2023-07-31T03:59:49;33.70;;;26.15;;
24873;SDS011;12945;42.648;23.370;2023-07-31T04:02:15;31.73;;;27.80;;
24873;SDS011;12945;42.648;23.370;2023-07-31T04:04:41;35.17;;;28.15;;
24873;SDS011;12945;42.648;23.370;2023-07-31T04:07:06;31.55;;;26.95;;
24873;SDS011;12945;42.648;23.370;2023-07-31T04:09:31;32.78;;;28.88;;
24873;SDS011;12945;42.648;23.370;2023-07-31T04:11:56;32.97;;;26.92;;
24873;SDS011;12945;42.648;23.370;2023-07-31T04:14:22;33.00;;;28.42;;
24873;SDS011;12945;42.648;23.370;2023-07-31T04:16:48;34.88;;;29.00;;
24873;SDS011;12945;42.648;23.370;2023-07-31T04:19:13;32.75;;;29.15;;
24873;SDS011;12945;42.648;23.370;2023-07-31T04:21:41;35.22;;;28.98;;
24873;SDS011;12945;42.648;23.370;2023-07-31T04:24:06;34.58;;;28.67;;
24873;SDS011;12945;42.648;23.370;2023-07-31T04:26:32;34.85;;;27.25;;
24873;SDS011;12945;42.648;23.370;2023-07-31T04:28:57;37.67;;;28.30;;
24873;SDS011;12945;42.648;23.370;2023-07-31T04:31:22;31.90;;;28.13;;
24873;SDS011;12945;42.648;23.370;2023-07-31T04:33:47;35.70;;;28.42;;
24873;SDS011;12945;42.648;23.370;2023-07-31T04:36:13;31.23;;;27.15;;
24873;SDS011;12945;42.648;23.370;2023-07-31T04:38:38;33.72;;;29.13;;
24873;SDS011;12945;42.648;23.370;2023-07-31T04:41:03;33.30;;;27.67;;
24873;SDS011;12945;42.648;23.370;2023-07-31T04:43:30;36.58;;;28.42;;
24873;SDS011;12945;42.648;23.370;2023-07-31T04:45:55;33.22;;;27.95;;
24873;SDS011;12945;42.648;23.370;2023-07-31T04:48:21;32.80;;;27.67;;
24873;SDS011;12945;42.648;23.370;2023-07-31T04:50:46;30.92;;;26.15;;
24873;SDS011;12945;42.648;23.370;2023-07-31T04:53:11;35.67;;;27.33;;
24873;SDS011;12945;42.648;23.370;2023-07-31T04:55:37;31.45;;;26.23;;
24873;SDS011;12945;42.648;23.370;2023-07-31T04:58:02;31.17;;;26.60;;
24873;SDS011;12945;42.648;23.370;2023-07-31T05:00:27;36.75;;;25.85;;
24873;SDS011;12945;42.648;23.370;2023-07-31T05:02:53;28.23;;;23.98;;
24873;SDS011;12945;42.648;23.370;2023-07-31T05:05:18;28.15;;;23.95;;
24873;SDS011;12945;42.648;23.370;2023-07-31T05:07:43;28.00;;;22.85;;
24873;SDS011;12945;42.648;23.370;2023-07-31T05:10:09;27.00;;;23.20;;
24873;SDS011;12945;42.648;23.370;2023-07-31T05:12:34;27.75;;;22.85;;
24873;SDS011;12945;42.648;23.370;2023-07-31T05:14:59;34.20;;;23.45;;
24873;SDS011;12945;42.648;23.370;2023-07-31T05:17:25;31.83;;;24.45;;
24873;SDS011;12945;42.648;23.370;2023-07-31T05:19:50;26.08;;;22.60;;
24873;SDS011;12945;42.648;23.370;2023-07-31T05:22:15;24.00;;;20.63;;
24873;SDS011;12945;42.648;23.370;2023-07-31T05:24:40;24.60;;;21.42;;
24873;SDS011;12945;42.648;23.370;2023-07-31T05:27:06;24.98;;;20.33;;
24873;SDS011;12945;42.648;23.370;2023-07-31T05:29:31;23.35;;;19.35;;
24873;SDS011;12945;42.648;23.370;2023-07-31T05:31:57;24.10;;;20.48;;
24873;SDS011;12945;42.648;23.370;2023-07-31T05:34:22;22.55;;;20.02;;
24873;SDS011;12945;42.648;23.370;2023-07-31T05:36:47;23.30;;;20.20;;
24873;SDS011;12945;42.648;23.370;2023-07-31T05:39:13;22.80;;;18.17;;
24873;SDS011;12945;42.648;23.370;2023-07-31T05:41:38;20.60;;;17.60;;
24873;SDS011;12945;42.648;23.370;2023-07-31T05:44:03;18.63;;;16.63;;
24873;SDS011;12945;42.648;23.370;2023-07-31T05:46:28;18.73;;;15.88;;
24873;SDS011;12945;42.648;23.370;2023-07-31T05:48:54;16.70;;;15.00;;
24873;SDS011;12945;42.648;23.370;2023-07-31T05:51:19;17.35;;;15.55;;
24873;SDS011;12945;42.648;23.370;2023-07-31T05:53:44;15.00;;;12.45;;
24873;SDS011;12945;42.648;23.370;2023-07-31T05:56:10;13.57;;;12.10;;
24873;SDS011;12945;42.648;23.370;2023-07-31T05:58:35;13.55;;;11.82;;
24873;SDS011;12945;42.648;23.370;2023-07-31T06:01:00;12.18;;;10.98;;
24873;SDS011;12945;42.648;23.370;2023-07-31T06:03:25;12.25;;;10.95;;
24873;SDS011;12945;42.648;23.370;2023-07-31T06:05:51;15.05;;;10.35;;
24873;SDS011;12945;42.648;23.370;2023-07-31T06:08:16;10.80;;;9.20;;
24873;SDS011;12945;42.648;23.370;2023-07-31T06:10:41;10.50;;;9.38;;
24873;SDS011;12945;42.648;23.370;2023-07-31T06:13:06;10.25;;;8.75;;
24873;SDS011;12945;42.648;23.370;2023-07-31T06:15:32;10.32;;;8.32;;
24873;SDS011;12945;42.648;23.370;2023-07-31T06:17:57;9.00;;;8.10;;
24873;SDS011;12945;42.648;23.370;2023-07-31T06:20:22;10.57;;;8.48;;
24873;SDS011;12945;42.648;23.370;2023-07-31T06:22:48;9.02;;;7.25;;
24873;SDS011;12945;42.648;23.370;2023-07-31T06:25:13;8.43;;;6.82;;
24873;SDS011;12945;42.648;23.370;2023-07-31T06:27:38;9.45;;;6.38;;
24873;SDS011;12945;42.648;23.370;2023-07-31T06:30:04;9.32;;;6.32;;
24873;SDS011;12945;42.648;23.370;2023-07-31T06:32:30;7.57;;;5.60;;
24873;SDS011;12945;42.648;23.370;2023-07-31T06:34:55;6.25;;;5.20;;
24873;SDS011;12945;42.648;23.370;2023-07-31T06:37:20;5.38;;;4.88;;
24873;SDS011;12945;42.648;23.370;2023-07-31T06:39:46;8.98;;;5.00;;
24873;SDS011;12945;42.648;23.370;2023-07-31T06:42:11;6.70;;;5.32;;
24873;SDS011;12945;42.648;23.370;2023-07-31T06:44:36;6.82;;;4.90;;
24873;SDS011;12945;42.648;23.370;2023-07-31T06:47:02;6.25;;;5.25;;
24873;SDS011;12945;42.648;23.370;2023-07-31T06:49:27;7.63;;;5.70;;
24873;SDS011;12945;42.648;23.370;2023-07-31T06:51:52;7.32;;;5.70;;
24873;SDS011;12945;42.648;23.370;2023-07-31T06:54:18;6.65;;;5.28;;
24873;SDS011;12945;42.648;23.370;2023-07-31T06:56:43;5.75;;;4.88;;
24873;SDS011;12945;42.648;23.370;2023-07-31T06:59:08;8.00;;;5.30;;
24873;SDS011;12945;42.648;23.370;2023-07-31T07:01:34;9.43;;;4.63;;
24873;SDS011;12945;42.648;23.370;2023-07-31T07:03:59;5.72;;;4.57;;
24873;SDS011;12945;42.648;23.370;2023-07-31T07:06:24;9.00;;;4.88;;
24873;SDS011;12945;42.648;23.370;2023-07-31T07:08:50;7.00;;;5.25;;
24873;SDS011;12945;42.648;23.370;2023-07-31T07:11:16;9.88;;;4.78;;
24873;SDS011;12945;42.648;23.370;2023-07-31T07:13:41;7.25;;;4.18;;
24873;SDS011;12945;42.648;23.370;2023-07-31T07:16:06;7.50;;;4.18;;
24873;SDS011;12945;42.648;23.370;2023-07-31T07:18:32;4.72;;;4.18;;
24873;SDS011;12945;42.648;23.370;2023-07-31T07:20:57;5.38;;;4.22;;
24873;SDS011;12945;42.648;23.370;2023-07-31T07:23:23;5.20;;;4.20;;
24873;SDS011;12945;42.648;23.370;2023-07-31T07:25:48;8.43;;;4.70;;
24873;SDS011;12945;42.648;23.370;2023-07-31T07:28:14;5.07;;;3.97;;
24873;SDS011;12945;42.648;23.370;2023-07-31T07:30:39;7.30;;;3.97;;
24873;SDS011;12945;42.648;23.370;2023-07-31T07:33:05;7.97;;;3.60;;
24873;SDS011;12945;42.648;23.370;2023-07-31T07:35:35;4.43;;;3.30;;
24873;SDS011;12945;42.648;23.370;2023-07-31T07:38:03;4.47;;;3.33;;
24873;SDS011;12945;42.648;23.370;2023-07-31T07:40:29;5.38;;;3.58;;
24873;SDS011;12945;42.648;23.370;2023-07-31T07:42:54;4.53;;;3.30;;
24873;SDS011;12945;42.648;23.370;2023-07-31T07:45:20;5.15;;;3.75;;
24873;SDS011;12945;42.648;23.370;2023-07-31T07:47:45;5.18;;;3.90;;
24873;SDS011;12945;42.648;23.370;2023-07-31T07:50:10;5.85;;;4.03;;
24873;SDS011;12945;42.648;23.370;2023-07-31T07:52:36;9.20;;;3.95;;
24873;SDS011;12945;42.648;23.370;2023-07-31T07:55:01;4.57;;;3.80;;
24873;SDS011;12945;42.648;23.370;2023-07-31T07:57:26;3.97;;;3.45;;
24873;SDS011;12945;42.648;23.370;2023-07-31T07:59:52;8.80;;;4.22;;
24873;SDS011;12945;42.648;23.370;2023-07-31T08:02:17;6.93;;;3.00;;
24873;SDS011;12945;42.648;23.370;2023-07-31T08:04:42;6.47;;;3.15;;
24873;SDS011;12945;42.648;23.370;2023-07-31T08:07:07;10.35;;;3.95;;
24873;SDS011;12945;42.648;23.370;2023-07-31T08:09:35;3.60;;;3.00;;
24873;SDS011;12945;42.648;23.370;2023-07-31T08:12:01;9.25;;;2.88;;
24873;SDS011;12945;42.648;23.370;2023-07-31T08:14:28;3.80;;;2.88;;
24873;SDS011;12945;42.648;23.370;2023-07-31T08:16:53;3.65;;;3.05;;
24873;SDS011;12945;42.648;23.370;2023-07-31T08:19:19;5.05;;;3.08;;
24873;SDS011;12945;42.648;23.370;2023-07-31T08:21:44;7.47;;;3.60;;
24873;SDS011;12945;42.648;23.370;2023-07-31T08:24:09;6.10;;;3.30;;
24873;SDS011;12945;42.648;23.370;2023-07-31T08:26:35;7.35;;;3.78;;
24873;SDS011;12945;42.648;23.370;2023-07-31T08:29:00;8.25;;;3.13;;
24873;SDS011;12945;42.648;23.370;2023-07-31T08:31:26;5.13;;;3.60;;
24873;SDS011;12945;42.648;23.370;2023-07-31T08:33:52;11.48;;;3.63;;
24873;SDS011;12945;42.648;23.370;2023-07-31T08:36:17;4.63;;;3.20;;
24873;SDS011;12945;42.648;23.370;2023-07-31T08:38:42;7.07;;;3.27;;
24873;SDS011;12945;42.648;23.370;2023-07-31T08:41:07;10.52;;;3.40;;
24873;SDS011;12945;42.648;23.370;2023-07-31T08:43:33;5.22;;;3.10;;
24873;SDS011;12945;42.648;23.370;2023-07-31T08:45:58;5.97;;;3.20;;
24873;SDS011;12945;42.648;23.370;2023-07-31T08:48:24;7.00;;;3.08;;
24873;SDS011;12945;42.648;23.370;2023-07-31T08:50:50;5.75;;;3.22;;
24873;SDS011;12945;42.648;23.370;2023-07-31T08:53:16;4.38;;;3.45;;
24873;SDS011;12945;42.648;23.370;2023-07-31T08:55:42;6.05;;;3.38;;
24873;SDS011;12945;42.648;23.370;2023-07-31T08:58:08;4.72;;;3.22;;
24873;SDS011;12945;42.648;23.370;2023-07-31T09:00:33;4.18;;;3.03;;
24873;SDS011;12945;42.648;23.370;2023-07-31T09:03:03;7.25;;;3.45;;
24873;SDS011;12945;42.648;23.370;2023-07-31T09:05:29;9.15;;;3.30;;
24873;SDS011;12945;42.648;23.370;2023-07-31T09:07:54;4.13;;;3.00;;
24873;SDS011;12945;42.648;23.370;2023-07-31T09:10:20;4.70;;;3.00;;
24873;SDS011;12945;42.648;23.370;2023-07-31T09:12:46;4.70;;;3.10;;
24873;SDS011;12945;42.648;23.370;2023-07-31T09:15:11;7.22;;;3.08;;
24873;SDS011;12945;42.648;23.370;2023-07-31T09:17:36;4.60;;;3.13;;
24873;SDS011;12945;42.648;23.370;2023-07-31T09:20:18;8.38;;;3.10;;
24873;SDS011;12945;42.648;23.370;2023-07-31T09:22:44;5.80;;;3.20;;
24873;SDS011;12945;42.648;23.370;2023-07-31T09:25:22;5.93;;;3.38;;
24873;SDS011;12945;42.648;23.370;2023-07-31T09:27:53;5.20;;;3.13;;
24873;SDS011;12945;42.648;23.370;2023-07-31T09:30:19;6.65;;;3.42;;
24873;SDS011;12945;42.648;23.370;2023-07-31T09:32:45;4.28;;;3.30;;
24873;SDS011;12945;42.648;23.370;2023-07-31T09:35:30;3.95;;;3.13;;
24873;SDS011;12945;42.648;23.370;2023-07-31T09:37:58;5.82;;;2.90;;
24873;SDS011;12945;42.648;23.370;2023-07-31T09:40:27;4.13;;;3.03;;
24873;SDS011;12945;42.648;23.370;2023-07-31T09:42:54;5.17;;;3.40;;
24873;SDS011;12945;42.648;23.370;2023-07-31T09:45:20;4.10;;;3.05;;
24873;SDS011;12945;42.648;23.370;2023-07-31T09:47:46;5.38;;;3.50;;
24873;SDS011;12945;42.648;23.370;2023-07-31T09:50:13;7.97;;;3.13;;
24873;SDS011;12945;42.648;23.370;2023-07-31T09:52:39;4.90;;;2.95;;
24873;SDS011;12945;42.648;23.370;2023-07-31T09:55:05;6.53;;;3.28;;
24873;SDS011;12945;42.648;23.370;2023-07-31T09:57:30;6.40;;;3.40;;
24873;SDS011;12945;42.648;23.370;2023-07-31T09:59:56;4.82;;;3.40;;
24873;SDS011;12945;42.648;23.370;2023-07-31T10:02:21;3.80;;;2.80;;
24873;SDS011;12945;42.648;23.370;2023-07-31T10:04:48;6.68;;;3.33;;
24873;SDS011;12945;42.648;23.370;2023-07-31T10:07:14;5.57;;;3.00;;
24873;SDS011;12945;42.648;23.370;2023-07-31T10:09:41;5.00;;;3.03;;
24873;SDS011;12945;42.648;23.370;2023-07-31T10:12:06;5.38;;;2.92;;
24873;SDS011;12945;42.648;23.370;2023-07-31T10:14:34;6.93;;;2.60;;
24873;SDS011;12945;42.648;23.370;2023-07-31T10:17:00;4.18;;;2.70;;
24873;SDS011;12945;42.648;23.370;2023-07-31T10:19:26;5.35;;;2.92;;
24873;SDS011;12945;42.648;23.370;2023-07-31T10:21:52;4.90;;;2.80;;
24873;SDS011;12945;42.648;23.370;2023-07-31T10:24:18;3.53;;;2.45;;
24873;SDS011;12945;42.648;23.370;2023-07-31T10:26:44;8.85;;;2.83;;
24873;SDS011;12945;42.648;23.370;2023-07-31T10:29:10;2.78;;;2.30;;
24873;SDS011;12945;42.648;23.370;2023-07-31T10:31:36;3.17;;;2.10;;
24873;SDS011;12945;42.648;23.370;2023-07-31T10:34:02;3.38;;;2.50;;
24873;SDS011;12945;42.648;23.370;2023-07-31T10:36:28;2.92;;;2.20;;
24873;SDS011;12945;42.648;23.370;2023-07-31T10:38:54;4.03;;;2.33;;
24873;SDS011;12945;42.648;23.370;2023-07-31T10:41:26;2.42;;;2.22;;
24873;SDS011;12945;42.648;23.370;2023-07-31T10:43:54;4.70;;;2.30;;
24873;SDS011;12945;42.648;23.370;2023-07-31T10:46:20;2.97;;;2.10;;
24873;SDS011;12945;42.648;23.370;2023-07-31T10:48:45;3.27;;;2.20;;
24873;SDS011;12945;42.648;23.370;2023-07-31T10:51:11;4.95;;;2.03;;
24873;SDS011;12945;42.648;23.370;2023-07-31T10:53:41;3.08;;;2.20;;
24873;SDS011;12945;42.648;23.370;2023-07-31T10:56:10;2.72;;;2.20;;
24873;SDS011;12945;42.648;23.370;2023-07-31T10:58:44;2.78;;;2.22;;
24873;SDS011;12945;42.648;23.370;2023-07-31T11:01:09;2.42;;;2.00;;
24873;SDS011;12945;42.648;23.370;2023-07-31T11:03:40;2.75;;;2.25;;
24873;SDS011;12945;42.648;23.370;2023-07-31T11:06:06;3.17;;;2.00;;
24873;SDS011;12945;42.648;23.370;2023-07-31T11:08:32;4.47;;;2.22;;
24873;SDS011;12945;42.648;23.370;2023-07-31T11:13:30;4.75;;;2.40;;
24873;SDS011;12945;42.648;23.370;2023-07-31T11:15:55;5.10;;;2.60;;
24873;SDS011;12945;42.648;23.370;2023-07-31T11:18:21;5.88;;;2.38;;
24873;SDS011;12945;42.648;23.370;2023-07-31T11:20:46;3.95;;;2.20;;
24873;SDS011;12945;42.648;23.370;2023-07-31T11:23:12;2.20;;;2.00;;
24873;SDS011;12945;42.648;23.370;2023-07-31T11:25:38;2.13;;;1.92;;
24873;SDS011;12945;42.648;23.370;2023-07-31T11:28:04;2.97;;;2.67;;
24873;SDS011;12945;42.648;23.370;2023-07-31T11:30:29;2.45;;;1.98;;
24873;SDS011;12945;42.648;23.370;2023-07-31T11:32:55;2.60;;;1.92;;
24873;SDS011;12945;42.648;23.370;2023-07-31T11:35:20;4.78;;;2.28;;
24873;SDS011;12945;42.648;23.370;2023-07-31T11:37:46;6.93;;;2.10;;
24873;SDS011;12945;42.648;23.370;2023-07-31T11:40:11;2.72;;;2.10;;
24873;SDS011;12945;42.648;23.370;2023-07-31T11:42:37;3.70;;;1.88;;
24873;SDS011;12945;42.648;23.370;2023-07-31T11:45:03;4.47;;;2.20;;
24873;SDS011;12945;42.648;23.370;2023-07-31T11:47:29;3.35;;;2.15;;
24873;SDS011;12945;42.648;23.370;2023-07-31T11:49:55;2.95;;;2.05;;
24873;SDS011;12945;42.648;23.370;2023-07-31T11:52:21;4.57;;;2.30;;
24873;SDS011;12945;42.648;23.370;2023-07-31T11:54:48;5.47;;;2.70;;
24873;SDS011;12945;42.648;23.370;2023-07-31T11:57:13;5.50;;;2.42;;
24873;SDS011;12945;42.648;23.370;2023-07-31T11:59:39;3.67;;;2.40;;
24873;SDS011;12945;42.648;23.370;2023-07-31T12:02:04;5.00;;;2.53;;
24873;SDS011;12945;42.648;23.370;2023-07-31T12:04:30;3.70;;;2.55;;
24873;SDS011;12945;42.648;23.370;2023-07-31T12:06:55;7.97;;;2.72;;
24873;SDS011;12945;42.648;23.370;2023-07-31T12:09:20;6.60;;;2.80;;
24873;SDS011;12945;42.648;23.370;2023-07-31T12:11:46;6.20;;;2.70;;
24873;SDS011;12945;42.648;23.370;2023-07-31T12:14:21;4.43;;;2.80;;
24873;SDS011;12945;42.648;23.370;2023-07-31T12:16:56;5.18;;;2.70;;
24873;SDS011;12945;42.648;23.370;2023-07-31T12:19:22;3.22;;;2.65;;
24873;SDS011;12945;42.648;23.370;2023-07-31T12:21:47;5.80;;;3.15;;
24873;SDS011;12945;42.648;23.370;2023-07-31T12:24:13;3.30;;;2.67;;
24873;SDS011;12945;42.648;23.370;2023-07-31T12:26:38;2.93;;;2.63;;
24873;SDS011;12945;42.648;23.370;2023-07-31T12:29:04;6.05;;;2.75;;
24873;SDS011;12945;42.648;23.370;2023-07-31T12:31:31;14.45;;;3.40;;
24873;SDS011;12945;42.648;23.370;2023-07-31T12:33:58;5.88;;;3.90;;
24873;SDS011;12945;42.648;23.370;2023-07-31T12:36:24;6.32;;;4.50;;
24873;SDS011;12945;42.648;23.370;2023-07-31T12:38:50;7.30;;;5.18;;
24873;SDS011;12945;42.648;23.370;2023-07-31T12:41:15;5.95;;;5.40;;
24873;SDS011;12945;42.648;23.370;2023-07-31T12:43:41;8.15;;;5.20;;
24873;SDS011;12945;42.648;23.370;2023-07-31T12:46:07;6.35;;;4.40;;
24873;SDS011;12945;42.648;23.370;2023-07-31T12:48:35;5.60;;;4.82;;
24873;SDS011;12945;42.648;23.370;2023-07-31T12:51:01;8.63;;;4.55;;
24873;SDS011;12945;42.648;23.370;2023-07-31T12:53:27;6.15;;;4.85;;
24873;SDS011;12945;42.648;23.370;2023-07-31T12:55:52;4.95;;;4.20;;
24873;SDS011;12945;42.648;23.370;2023-07-31T12:58:17;4.63;;;4.20;;
24873;SDS011;12945;42.648;23.370;2023-07-31T13:00:43;8.40;;;4.50;;
24873;SDS011;12945;42.648;23.370;2023-07-31T13:03:08;4.95;;;4.32;;
24873;SDS011;12945;42.648;23.370;2023-07-31T13:05:33;5.53;;;4.75;;
24873;SDS011;12945;42.648;23.370;2023-07-31T13:07:58;7.15;;;5.30;;
24873;SDS011;12945;42.648;23.370;2023-07-31T13:10:24;6.50;;;4.97;;
24873;SDS011;12945;42.648;23.370;2023-07-31T13:12:51;5.18;;;4.68;;
24873;SDS011;12945;42.648;23.370;2023-07-31T13:15:16;5.63;;;5.03;;
24873;SDS011;12945;42.648;23.370;2023-07-31T13:17:42;5.70;;;5.20;;
24873;SDS011;12945;42.648;23.370;2023-07-31T13:20:07;6.65;;;5.15;;
24873;SDS011;12945;42.648;23.370;2023-07-31T13:22:33;12.85;;;5.53;;
24873;SDS011;12945;42.648;23.370;2023-07-31T13:24:58;9.55;;;5.88;;
24873;SDS011;12945;42.648;23.370;2023-07-31T13:27:24;7.50;;;5.90;;
24873;SDS011;12945;42.648;23.370;2023-07-31T13:29:49;6.47;;;5.43;;
24873;SDS011;12945;42.648;23.370;2023-07-31T13:32:16;5.55;;;4.88;;
24873;SDS011;12945;42.648;23.370;2023-07-31T13:34:41;6.60;;;4.50;;
24873;SDS011;12945;42.648;23.370;2023-07-31T13:37:06;6.93;;;4.35;;
24873;SDS011;12945;42.648;23.370;2023-07-31T13:39:32;6.35;;;4.15;;
24873;SDS011;12945;42.648;23.370;2023-07-31T13:41:58;4.80;;;4.30;;
24873;SDS011;12945;42.648;23.370;2023-07-31T13:44:23;8.88;;;4.35;;
24873;SDS011;12945;42.648;23.370;2023-07-31T13:46:49;7.00;;;4.20;;
24873;SDS011;12945;42.648;23.370;2023-07-31T13:49:14;6.60;;;3.90;;
24873;SDS011;12945;42.648;23.370;2023-07-31T13:51:39;7.57;;;4.13;;
24873;SDS011;12945;42.648;23.370;2023-07-31T13:54:05;5.75;;;3.75;;
24873;SDS011;12945;42.648;23.370;2023-07-31T13:56:31;7.25;;;4.38;;
24873;SDS011;12945;42.648;23.370;2023-07-31T13:58:57;6.33;;;4.23;;
24873;SDS011;12945;42.648;23.370;2023-07-31T14:01:22;6.93;;;4.07;;
24873;SDS011;12945;42.648;23.370;2023-07-31T14:03:47;4.38;;;3.97;;
24873;SDS011;12945;42.648;23.370;2023-07-31T14:06:13;4.75;;;4.03;;
24873;SDS011;12945;42.648;23.370;2023-07-31T14:08:38;4.50;;;3.83;;
24873;SDS011;12945;42.648;23.370;2023-07-31T14:11:03;5.22;;;4.03;;
24873;SDS011;12945;42.648;23.370;2023-07-31T14:13:29;4.60;;;3.73;;
24873;SDS011;12945;42.648;23.370;2023-07-31T14:15:54;6.70;;;3.93;;
24873;SDS011;12945;42.648;23.370;2023-07-31T14:18:19;4.57;;;4.13;;
24873;SDS011;12945;42.648;23.370;2023-07-31T14:20:45;5.03;;;4.30;;
24873;SDS011;12945;42.648;23.370;2023-07-31T14:23:10;4.80;;;4.25;;